Time;durP1;ratioP1;P1;durP2;ratioP2;P2;SDS_P1;SDS_P2;PMS_P1;PMS_P2;Temp;Humidity;BMP_temperature;BMP_pressure;BME280_temperature;BME280_humidity;BME280_pressure;Samples;Min_cycle;Max_cycle;Signal;HPM_P1;HPM_P2
2022/08/25 00:00:10;;;;;;;;;;;28.50;79.30;;;;;;5020249;28;19933;-59
2022/08/25 00:02:37;;;;;;;;;;;28.50;79.30;;;;;;5012645;28;19925;-61
2022/08/25 00:05:04;;;;;;;;;;;28.50;79.30;;;;;;5013105;28;20654;-62
2022/08/25 00:07:33;;;;;;;;;;;28.50;79.30;;;;;;5006101;28;19944;-60
2022/08/25 00:10:00;;;;;;;;;;;28.50;79.30;;;;;;5017622;28;19925;-61
2022/08/25 00:12:27;;;;;;;;;;;28.50;79.30;;;;;;4999255;28;19926;-55
2022/08/25 00:14:54;;;;;;;;;;;28.50;79.30;;;;;;5012828;28;19925;-60
2022/08/25 00:17:21;;;;;;;;;;;28.50;79.30;;;;;;5010385;28;19929;-61
2022/08/25 00:19:48;;;;;;;;;;;28.50;79.30;;;;;;5011577;28;19932;-60
2022/08/25 00:22:15;;;;;;;;;;;28.50;79.30;;;;;;5011246;28;20028;-58
2022/08/25 00:24:43;;;;;;;;;;;28.50;79.30;;;;;;5015312;28;19929;-60
2022/08/25 00:27:11;;;;;;;;;;;28.50;79.30;;;;;;5011949;28;19937;-61
2022/08/25 00:29:38;;;;;;;;;;;28.50;79.30;;;;;;5013915;28;19952;-60
2022/08/25 00:32:06;;;;;;;;;;;28.50;79.30;;;;;;5005281;28;19932;-61
2022/08/25 00:34:34;;;;;;;;;;;28.50;79.30;;;;;;5004742;28;19929;-61
2022/08/25 00:37:03;;;;;;;;;;;28.50;79.30;;;;;;5013186;28;19930;-61
2022/08/25 00:39:30;;;;;;;;;;;28.50;79.30;;;;;;5009273;28;19925;-61
2022/08/25 00:41:58;;;;;;;;;;;28.50;79.40;;;;;;5007051;28;19952;-60
2022/08/25 00:44:27;;;;;;;;;;;28.50;79.50;;;;;;5011515;28;19937;-58
2022/08/25 00:46:55;;;;;;;;;;;28.50;79.40;;;;;;5003834;28;19926;-60
2022/08/25 00:49:26;;;;;;;;;;;28.50;79.40;;;;;;5012050;28;19930;-62
2022/08/25 00:51:56;;;;;;;;;;;28.40;79.40;;;;;;5012267;28;19929;-61
2022/08/25 00:54:26;;;;;;;;;;;28.40;79.40;;;;;;5011940;28;19933;-59
2022/08/25 00:56:53;;;;;;;;;;;28.40;79.40;;;;;;5005468;28;19930;-61
2022/08/25 00:59:21;;;;;;;;;;;28.50;79.40;;;;;;5018020;28;19925;-62
2022/08/25 01:01:49;;;;;;;;;;;28.40;79.40;;;;;;5013202;28;19932;-61
2022/08/25 01:04:16;;;;;;;;;;;28.40;79.40;;;;;;5003365;28;19929;-61
2022/08/25 01:06:44;;;;;;;;;;;28.40;79.40;;;;;;5003365;28;19929;-61
2022/08/25 01:09:12;;;;;;;;;;;28.40;79.40;;;;;;5004032;28;19930;-61
2022/08/25 01:11:43;;;;;;;;;;;28.40;79.40;;;;;;5015660;28;19929;-62
2022/08/25 01:14:12;;;;;;;;;;;28.40;79.40;;;;;;5002196;28;19940;-62
2022/08/25 01:16:40;;;;;;;;;;;28.40;79.40;;;;;;5012082;28;19929;-61
2022/08/25 01:19:07;;;;;;;;;;;28.40;79.40;;;;;;5011891;28;20337;-60
2022/08/25 01:21:45;;;;;;;;;;;28.40;79.50;;;;;;4993478;28;19933;-62
2022/08/25 01:24:20;;;;;;;;;;;28.40;79.50;;;;;;5004363;28;19925;-60
2022/08/25 01:26:47;;;;;;;;;;;28.40;79.50;;;;;;5003709;28;19936;-60
2022/08/25 01:29:20;;;;;;;;;;;28.40;79.50;;;;;;5010062;28;19936;-62
2022/08/25 01:31:48;;;;;;;;;;;28.30;79.40;;;;;;5004577;28;19930;-62
2022/08/25 01:34:16;;;;;;;;;;;28.30;79.40;;;;;;5009733;28;19926;-62
2022/08/25 01:36:43;;;;;;;;;;;28.40;79.50;;;;;;5007525;28;19929;-61
2022/08/25 01:39:11;;;;;;;;;;;28.40;79.50;;;;;;5011017;28;20710;-61
2022/08/25 01:41:47;;;;;;;;;;;28.40;79.50;;;;;;5010426;28;19932;-62
2022/08/25 01:44:18;;;;;;;;;;;28.40;79.50;;;;;;5011089;28;19930;-59
2022/08/25 01:46:45;;;;;;;;;;;28.40;79.50;;;;;;5017460;28;19926;-61
2022/08/25 01:49:12;;;;;;;;;;;28.30;79.40;;;;;;5016971;28;19925;-60
2022/08/25 01:52:02;;;;;;;;;;;28.30;79.40;;;;;;4998103;28;19935;-60
2022/08/25 01:54:29;;;;;;;;;;;28.30;80.00;;;;;;5013632;28;19936;-62
2022/08/25 01:56:57;;;;;;;;;;;28.30;79.40;;;;;;5011191;28;19956;-61
2022/08/25 01:59:24;;;;;;;;;;;28.40;79.50;;;;;;5017201;28;19932;-61
2022/08/25 02:01:51;;;;;;;;;;;28.40;79.50;;;;;;5005580;28;19936;-62
2022/08/25 02:04:30;;;;;;;;;;;28.30;79.50;;;;;;5010580;28;19933;-61
2022/08/25 02:06:59;;;;;;;;;;;28.30;79.50;;;;;;5014650;28;20333;-62
2022/08/25 02:09:26;;;;;;;;;;;28.30;79.50;;;;;;5013227;28;19944;-61
2022/08/25 02:11:55;;;;;;;;;;;28.30;79.50;;;;;;5017613;28;19940;-59
2022/08/25 02:14:22;;;;;;;;;;;28.30;79.50;;;;;;5008514;28;19926;-62
2022/08/25 02:16:50;;;;;;;;;;;28.30;79.50;;;;;;5017254;28;19929;-61
2022/08/25 02:19:18;;;;;;;;;;;28.30;79.50;;;;;;5004559;28;19930;-58
2022/08/25 02:21:46;;;;;;;;;;;28.30;79.50;;;;;;5011067;28;19930;-62
2022/08/25 02:24:13;;;;;;;;;;;28.30;79.50;;;;;;5017136;28;19936;-62
2022/08/25 02:26:40;;;;;;;;;;;28.30;79.60;;;;;;5014381;28;19934;-61
2022/08/25 02:29:08;;;;;;;;;;;28.30;79.60;;;;;;5021113;28;20055;-60
2022/08/25 02:31:35;;;;;;;;;;;28.30;79.60;;;;;;5017444;28;19937;-60
2022/08/25 02:34:03;;;;;;;;;;;28.30;79.60;;;;;;5010646;28;19937;-60
2022/08/25 02:36:31;;;;;;;;;;;28.30;79.60;;;;;;5024860;28;19940;-60
2022/08/25 02:38:58;;;;;;;;;;;28.30;79.60;;;;;;5018647;28;19929;-61
2022/08/25 02:41:26;;;;;;;;;;;28.30;79.60;;;;;;5011219;28;19929;-62
2022/08/25 02:43:59;;;;;;;;;;;28.30;80.20;;;;;;5010464;28;19937;-60
2022/08/25 02:46:26;;;;;;;;;;;28.30;79.60;;;;;;5014138;28;20240;-62
2022/08/25 02:48:54;;;;;;;;;;;28.30;79.60;;;;;;5015955;28;19925;-61
2022/08/25 02:51:22;;;;;;;;;;;28.30;79.60;;;;;;5012651;28;19940;-59
2022/08/25 02:53:49;;;;;;;;;;;28.20;79.60;;;;;;5014294;28;19937;-60
2022/08/25 02:56:17;;;;;;;;;;;28.30;79.60;;;;;;5013086;28;19972;-61
2022/08/25 02:58:44;;;;;;;;;;;28.30;79.70;;;;;;5015991;28;19929;-60
2022/08/25 03:01:12;;;;;;;;;;;28.20;79.60;;;;;;4999168;28;19925;-60
2022/08/25 03:03:40;;;;;;;;;;;28.30;79.70;;;;;;5017718;28;19929;-60
2022/08/25 03:06:11;;;;;;;;;;;28.20;79.60;;;;;;5015854;28;19948;-61
2022/08/25 03:08:39;;;;;;;;;;;28.30;79.70;;;;;;5013323;28;19929;-60
2022/08/25 03:11:06;;;;;;;;;;;28.30;79.70;;;;;;5009432;28;19936;-60
2022/08/25 03:13:34;;;;;;;;;;;28.20;79.60;;;;;;5002962;28;19926;-61
2022/08/25 03:16:02;;;;;;;;;;;28.30;79.70;;;;;;5000283;28;19934;-59
2022/08/25 03:18:30;;;;;;;;;;;28.20;79.60;;;;;;5011418;28;19933;-59
2022/08/25 03:20:58;;;;;;;;;;;28.20;79.60;;;;;;5011184;28;19929;-61
2022/08/25 03:23:25;;;;;;;;;;;28.20;79.60;;;;;;5007293;28;19925;-60
2022/08/25 03:28:40;;;;;;;;;;;28.20;79.70;;;;;;5006752;28;19936;-61
2022/08/25 03:31:07;;;;;;;;;;;28.20;79.70;;;;;;5014222;28;19932;-59
2022/08/25 03:33:35;;;;;;;;;;;28.20;79.70;;;;;;5001694;28;19929;-61
2022/08/25 03:36:04;;;;;;;;;;;28.20;79.70;;;;;;5001282;28;19929;-61
2022/08/25 03:38:31;;;;;;;;;;;28.20;79.70;;;;;;5007239;28;19933;-59
2022/08/25 03:40:58;;;;;;;;;;;28.20;79.70;;;;;;4999088;28;19936;-63
2022/08/25 03:43:25;;;;;;;;;;;28.20;79.70;;;;;;5022417;28;19932;-62
2022/08/25 03:45:53;;;;;;;;;;;28.20;79.70;;;;;;5014401;28;19948;-63
2022/08/25 03:48:20;;;;;;;;;;;28.20;79.70;;;;;;5028250;28;19936;-62
2022/08/25 03:50:48;;;;;;;;;;;28.20;79.70;;;;;;5011925;28;19930;-62
2022/08/25 03:53:18;;;;;;;;;;;28.20;79.80;;;;;;5017310;28;19926;-61
2022/08/25 03:55:46;;;;;;;;;;;28.20;79.80;;;;;;5008512;28;20240;-61
2022/08/25 03:58:13;;;;;;;;;;;28.20;79.80;;;;;;5025078;28;19960;-62
2022/08/25 04:00:40;;;;;;;;;;;28.20;79.80;;;;;;5019141;28;19929;-62
2022/08/25 04:03:08;;;;;;;;;;;28.20;79.80;;;;;;5019685;28;19929;-61
2022/08/25 04:05:35;;;;;;;;;;;28.20;79.80;;;;;;5016364;28;19936;-61
2022/08/25 04:08:03;;;;;;;;;;;28.20;79.80;;;;;;5020203;28;19936;-62
2022/08/25 04:10:30;;;;;;;;;;;28.20;79.80;;;;;;5014455;28;19926;-62
2022/08/25 04:12:58;;;;;;;;;;;28.10;79.70;;;;;;5016329;28;19929;-61
2022/08/25 04:15:25;;;;;;;;;;;28.10;79.70;;;;;;5013780;28;19929;-60
2022/08/25 04:17:57;;;;;;;;;;;28.10;79.70;;;;;;5010749;28;19929;-60
2022/08/25 04:20:25;;;;;;;;;;;28.10;79.80;;;;;;5004678;28;19929;-61
2022/08/25 04:22:59;;;;;;;;;;;28.10;79.80;;;;;;5018580;28;20320;-60
2022/08/25 04:25:26;;;;;;;;;;;28.10;79.80;;;;;;5011120;28;19934;-59
2022/08/25 04:27:54;;;;;;;;;;;28.10;79.80;;;;;;5010578;28;19929;-61
2022/08/25 04:30:21;;;;;;;;;;;28.10;79.80;;;;;;5014804;28;19933;-61
2022/08/25 04:32:48;;;;;;;;;;;28.10;79.80;;;;;;5008246;28;19925;-63
2022/08/25 04:35:16;;;;;;;;;;;28.10;79.80;;;;;;5006377;28;19936;-59
2022/08/25 04:37:43;;;;;;;;;;;28.10;79.90;;;;;;5004483;28;19930;-60
2022/08/25 04:40:11;;;;;;;;;;;28.10;79.90;;;;;;5000148;28;19937;-61
2022/08/25 04:42:38;;;;;;;;;;;28.10;79.90;;;;;;5010255;28;19952;-60
2022/08/25 04:45:06;;;;;;;;;;;28.10;79.90;;;;;;5014761;28;19937;-57
2022/08/25 04:47:37;;;;;;;;;;;28.10;79.90;;;;;;5000597;28;19929;-61
2022/08/25 04:50:06;;;;;;;;;;;28.10;79.90;;;;;;5022540;28;19936;-61
2022/08/25 04:52:33;;;;;;;;;;;28.10;79.90;;;;;;5011690;28;19930;-58
2022/08/25 04:55:00;;;;;;;;;;;28.10;79.90;;;;;;5011613;28;19948;-61
2022/08/25 04:57:27;;;;;;;;;;;28.00;79.90;;;;;;5014436;28;19929;-61
2022/08/25 04:59:54;;;;;;;;;;;28.10;80.00;;;;;;5006807;28;19925;-60
2022/08/25 05:02:24;;;;;;;;;;;28.10;79.90;;;;;;5005737;28;20413;-60
2022/08/25 05:04:51;;;;;;;;;;;28.10;79.90;;;;;;5010212;28;20337;-63
2022/08/25 05:07:18;;;;;;;;;;;28.10;79.90;;;;;;4995492;28;19941;-59
2022/08/25 05:09:45;;;;;;;;;;;28.00;79.90;;;;;;5017868;28;19925;-60
2022/08/25 05:12:12;;;;;;;;;;;28.00;79.90;;;;;;5012404;28;19937;-59
2022/08/25 05:14:39;;;;;;;;;;;28.10;80.00;;;;;;5018915;28;20312;-60
2022/08/25 05:17:07;;;;;;;;;;;28.00;79.90;;;;;;5012463;28;19925;-62
2022/08/25 05:19:35;;;;;;;;;;;28.00;79.90;;;;;;5000979;28;19932;-59
2022/08/25 05:22:02;;;;;;;;;;;28.00;79.90;;;;;;5017152;28;19933;-61
2022/08/25 05:24:29;;;;;;;;;;;28.00;79.90;;;;;;5012566;28;20304;-59
2022/08/25 05:26:57;;;;;;;;;;;28.00;79.90;;;;;;5028353;28;20387;-62
2022/08/25 05:29:24;;;;;;;;;;;28.00;80.00;;;;;;5002817;28;19937;-61
2022/08/25 05:31:52;;;;;;;;;;;28.00;79.90;;;;;;5019672;28;19937;-61
2022/08/25 05:34:19;;;;;;;;;;;28.00;79.90;;;;;;5008831;28;19952;-59
2022/08/25 05:36:47;;;;;;;;;;;28.10;80.50;;;;;;5012843;28;19936;-61
2022/08/25 05:39:15;;;;;;;;;;;28.00;80.00;;;;;;5010755;28;19926;-59
2022/08/25 05:41:42;;;;;;;;;;;28.00;79.90;;;;;;5007732;28;19933;-62
2022/08/25 05:44:09;;;;;;;;;;;28.00;79.90;;;;;;5008699;28;19926;-58
2022/08/25 05:46:36;;;;;;;;;;;28.00;79.90;;;;;;5005442;28;19930;-60
2022/08/25 05:49:03;;;;;;;;;;;28.00;79.90;;;;;;5012621;28;20320;-60
2022/08/25 05:51:30;;;;;;;;;;;28.00;79.90;;;;;;5018224;28;19925;-62
2022/08/25 05:53:57;;;;;;;;;;;28.00;80.00;;;;;;5008103;28;19932;-60
2022/08/25 05:56:24;;;;;;;;;;;28.00;79.90;;;;;;5021418;28;19936;-62
2022/08/25 05:58:52;;;;;;;;;;;28.00;80.00;;;;;;5012759;28;19937;-60
2022/08/25 06:04:09;;;;;;;;;;;28.00;79.90;;;;;;5022569;28;20472;-60
2022/08/25 06:06:37;;;;;;;;;;;28.00;79.80;;;;;;5035592;28;19937;-63
2022/08/25 06:09:07;;;;;;;;;;;28.00;79.90;;;;;;5026311;28;19936;-58
2022/08/25 06:11:35;;;;;;;;;;;28.00;79.90;;;;;;5017744;28;19926;-59
2022/08/25 06:14:03;;;;;;;;;;;28.00;79.90;;;;;;5022511;28;19934;-60
2022/08/25 06:16:30;;;;;;;;;;;28.00;79.90;;;;;;5024553;28;19936;-59
2022/08/25 06:18:58;;;;;;;;;;;28.00;79.90;;;;;;5030664;28;19933;-61
2022/08/25 06:21:25;;;;;;;;;;;28.10;80.00;;;;;;5015045;28;19940;-57
2022/08/25 06:23:52;;;;;;;;;;;28.00;79.90;;;;;;5026829;28;19940;-63
2022/08/25 06:26:19;;;;;;;;;;;28.00;79.90;;;;;;5017199;28;19936;-60
2022/08/25 06:28:51;;;;;;;;;;;28.10;80.00;;;;;;5023334;28;19936;-60
2022/08/25 06:31:19;;;;;;;;;;;28.00;79.90;;;;;;5021284;28;19933;-60
2022/08/25 06:33:46;;;;;;;;;;;28.00;79.90;;;;;;5011388;28;19936;-61
2022/08/25 06:36:14;;;;;;;;;;;28.00;79.90;;;;;;5027827;28;19936;-61
2022/08/25 06:38:41;;;;;;;;;;;28.00;79.90;;;;;;5030557;28;19940;-61
2022/08/25 06:41:11;;;;;;;;;;;28.00;80.00;;;;;;5024106;28;19926;-60
2022/08/25 06:43:39;;;;;;;;;;;28.00;79.90;;;;;;5019654;28;19932;-60
2022/08/25 06:46:16;;;;;;;;;;;28.00;80.00;;;;;;5035049;28;19933;-59
2022/08/25 06:48:43;;;;;;;;;;;28.00;80.00;;;;;;5024911;28;19944;-60
2022/08/25 06:51:11;;;;;;;;;;;28.00;80.00;;;;;;5019093;28;19935;-60
2022/08/25 06:53:41;;;;;;;;;;;28.00;80.00;;;;;;5020804;28;19932;-62
2022/08/25 06:56:09;;;;;;;;;;;28.00;80.10;;;;;;5026885;28;19929;-61
2022/08/25 06:58:37;;;;;;;;;;;28.10;80.20;;;;;;5029557;28;20312;-60
2022/08/25 07:01:11;;;;;;;;;;;28.10;80.10;;;;;;5020532;28;19929;-61
2022/08/25 07:03:47;;;;;;;;;;;28.10;80.20;;;;;;5015839;28;19929;-62
2022/08/25 07:06:14;;;;;;;;;;;28.10;80.20;;;;;;5017919;28;19929;-56
2022/08/25 07:08:45;;;;;;;;;;;28.00;80.10;;;;;;5021346;28;19932;-60
2022/08/25 07:11:13;;;;;;;;;;;28.10;80.20;;;;;;5021326;28;19936;-60
2022/08/25 07:13:44;;;;;;;;;;;28.10;80.20;;;;;;5016547;28;20320;-60
2022/08/25 07:16:11;;;;;;;;;;;28.10;80.20;;;;;;5026613;28;19937;-61
2022/08/25 07:18:38;;;;;;;;;;;28.10;80.20;;;;;;5019965;28;19932;-61
2022/08/25 07:21:05;;;;;;;;;;;28.10;80.20;;;;;;5007463;28;19940;-60
2022/08/25 07:23:35;;;;;;;;;;;28.20;80.30;;;;;;5011905;28;19929;-62
2022/08/25 07:26:07;;;;;;;;;;;28.10;80.20;;;;;;5029997;28;21563;-61
2022/08/25 07:28:53;;;;;;;;;;;28.20;80.30;;;;;;5023107;28;19934;-61
2022/08/25 07:31:20;;;;;;;;;;;28.20;80.30;;;;;;5006333;28;20031;-61
2022/08/25 07:36:42;;;;;;;;;;;28.20;80.30;;;;;;5020296;28;19936;-61
2022/08/25 07:39:10;;;;;;;;;;;28.20;80.90;;;;;;5011711;28;20302;-61
2022/08/25 07:41:38;;;;;;;;;;;28.20;80.30;;;;;;5011878;28;19967;-61
2022/08/25 07:44:07;;;;;;;;;;;28.20;80.30;;;;;;5008331;28;19926;-60
2022/08/25 07:46:34;;;;;;;;;;;28.20;80.30;;;;;;5018310;28;19929;-62
2022/08/25 07:49:02;;;;;;;;;;;28.20;80.30;;;;;;5016465;28;19937;-62
2022/08/25 07:51:29;;;;;;;;;;;28.30;80.40;;;;;;5003286;28;20346;-62
2022/08/25 07:53:56;;;;;;;;;;;28.30;80.50;;;;;;5007108;28;19925;-63
2022/08/25 07:56:24;;;;;;;;;;;28.30;80.50;;;;;;5021348;28;19929;-62
2022/08/25 07:58:51;;;;;;;;;;;28.20;80.40;;;;;;5005406;28;20009;-61
2022/08/25 08:01:20;;;;;;;;;;;28.30;80.50;;;;;;5006945;28;19929;-62
2022/08/25 08:03:47;;;;;;;;;;;28.30;80.50;;;;;;5013849;28;19937;-62
2022/08/25 08:06:18;;;;;;;;;;;28.30;80.50;;;;;;5021664;28;19936;-63
2022/08/25 08:08:48;;;;;;;;;;;28.30;80.50;;;;;;5006653;28;19930;-61
2022/08/25 08:11:21;;;;;;;;;;;28.30;80.50;;;;;;5004800;28;19948;-62
2022/08/25 08:13:50;;;;;;;;;;;28.40;80.50;;;;;;5019875;28;19929;-63
2022/08/25 08:16:18;;;;;;;;;;;28.30;80.50;;;;;;5007877;28;19929;-63
2022/08/25 08:18:46;;;;;;;;;;;28.30;80.50;;;;;;5010004;28;20300;-61
2022/08/25 08:21:18;;;;;;;;;;;28.30;80.50;;;;;;5002458;28;20028;-61
2022/08/25 08:23:47;;;;;;;;;;;28.40;80.60;;;;;;5010713;28;19936;-61
2022/08/25 08:26:15;;;;;;;;;;;28.40;80.60;;;;;;5022306;28;19936;-59
2022/08/25 08:28:43;;;;;;;;;;;28.40;80.50;;;;;;5018897;28;19929;-62
2022/08/25 08:31:19;;;;;;;;;;;28.40;80.60;;;;;;5029404;28;19930;-62
2022/08/25 08:33:48;;;;;;;;;;;28.40;80.60;;;;;;5012080;28;20043;-60
2022/08/25 08:36:17;;;;;;;;;;;28.40;80.50;;;;;;5012096;28;20405;-61
2022/08/25 08:38:45;;;;;;;;;;;28.40;80.50;;;;;;5007120;28;19937;-63
2022/08/25 08:44:23;;;;;;;;;;;28.40;80.60;;;;;;5012102;28;20428;-62
2022/08/25 08:46:58;;;;;;;;;;;28.40;80.60;;;;;;5019129;28;20024;-62
2022/08/25 08:49:44;;;;;;;;;;;28.40;80.60;;;;;;5017023;28;19936;-62
2022/08/25 08:52:13;;;;;;;;;;;28.40;80.60;;;;;;5021833;28;20403;-61
2022/08/25 08:54:41;;;;;;;;;;;28.40;80.60;;;;;;5022745;28;19936;-61
2022/08/25 08:57:11;;;;;;;;;;;28.40;80.70;;;;;;5017152;28;20397;-62
2022/08/25 08:59:40;;;;;;;;;;;28.40;80.60;;;;;;5003584;28;19930;-62
2022/08/25 09:02:12;;;;;;;;;;;28.40;80.60;;;;;;5003744;28;19929;-56
2022/08/25 09:04:43;;;;;;;;;;;28.40;80.60;;;;;;5009099;28;19932;-60
2022/08/25 09:07:17;;;;;;;;;;;28.40;80.60;;;;;;5021216;28;19929;-61
2022/08/25 09:09:46;;;;;;;;;;;28.40;80.60;;;;;;5014580;28;19945;-62
2022/08/25 09:12:18;;;;;;;;;;;28.50;80.70;;;;;;5011746;28;19952;-61
2022/08/25 09:15:05;;;;;;;;;;;28.40;80.60;;;;;;5003533;28;19932;-60
2022/08/25 09:17:44;;;;;;;;;;;28.40;80.70;;;;;;5004188;28;19926;-62
2022/08/25 09:20:20;;;;;;;;;;;28.40;80.70;;;;;;5013846;28;19940;-60
2022/08/25 09:23:01;;;;;;;;;;;28.40;80.70;;;;;;5015980;28;19934;-61
2022/08/25 09:25:38;;;;;;;;;;;28.40;80.70;;;;;;5021235;28;19925;-61
2022/08/25 09:28:30;;;;;;;;;;;28.50;80.70;;;;;;5025553;28;19929;-61
2022/08/25 09:31:02;;;;;;;;;;;28.40;80.70;;;;;;5011274;28;19929;-60
2022/08/25 09:33:31;;;;;;;;;;;28.50;80.70;;;;;;5017750;28;19925;-61
2022/08/25 09:36:02;;;;;;;;;;;28.50;80.70;;;;;;5020440;28;19929;-63
2022/08/25 09:38:32;;;;;;;;;;;28.50;80.70;;;;;;5013825;28;19936;-61
2022/08/25 09:41:00;;;;;;;;;;;28.50;80.80;;;;;;5017207;28;19936;-62
2022/08/25 09:43:27;;;;;;;;;;;28.50;80.70;;;;;;5010208;28;19939;-61
2022/08/25 09:45:59;;;;;;;;;;;28.50;80.70;;;;;;5014729;28;19936;-61
2022/08/25 09:48:39;;;;;;;;;;;28.50;80.70;;;;;;5004134;28;20695;-63
2022/08/25 09:51:16;;;;;;;;;;;28.50;80.70;;;;;;5011939;28;19929;-63
2022/08/25 09:53:48;;;;;;;;;;;28.50;80.70;;;;;;5009276;28;19934;-65
2022/08/25 09:56:17;;;;;;;;;;;28.50;80.70;;;;;;5009451;28;19926;-62
2022/08/25 09:58:44;;;;;;;;;;;28.50;80.70;;;;;;5016714;28;20393;-62
2022/08/25 10:01:15;;;;;;;;;;;28.50;80.70;;;;;;5003906;28;19936;-63
2022/08/25 10:03:54;;;;;;;;;;;28.50;80.70;;;;;;5011242;28;19925;-62
2022/08/25 10:06:22;;;;;;;;;;;28.50;80.70;;;;;;5008727;28;19936;-68
2022/08/25 10:08:50;;;;;;;;;;;28.50;80.70;;;;;;5007309;28;19930;-59
2022/08/25 10:11:36;;;;;;;;;;;28.50;80.70;;;;;;5015519;28;20305;-62
2022/08/25 10:14:15;;;;;;;;;;;28.50;80.70;;;;;;5015287;28;19933;-62
2022/08/25 10:16:43;;;;;;;;;;;28.50;80.70;;;;;;5016097;28;19933;-64
2022/08/25 10:19:13;;;;;;;;;;;28.50;80.70;;;;;;5015322;28;19929;-62
2022/08/25 10:21:41;;;;;;;;;;;28.50;80.70;;;;;;5017238;28;19948;-62
2022/08/25 10:24:11;;;;;;;;;;;28.50;80.70;;;;;;5008412;28;19925;-62
2022/08/25 10:26:44;;;;;;;;;;;28.60;80.80;;;;;;5026736;28;19928;-61
2022/08/25 10:29:30;;;;;;;;;;;28.50;80.70;;;;;;5025513;28;19929;-63
2022/08/25 10:32:03;;;;;;;;;;;28.50;80.70;;;;;;5010190;28;19929;-63
2022/08/25 10:34:45;;;;;;;;;;;28.50;80.70;;;;;;5021109;28;19929;-64
2022/08/25 10:37:26;;;;;;;;;;;28.50;80.60;;;;;;5037311;28;19933;-61
2022/08/25 10:40:09;;;;;;;;;;;28.50;80.70;;;;;;5045066;28;19929;-63
2022/08/25 10:42:59;;;;;;;;;;;28.50;80.70;;;;;;5019942;28;19926;-61
2022/08/25 10:45:42;;;;;;;;;;;28.60;80.70;;;;;;5025344;28;19930;-61
2022/08/25 10:48:22;;;;;;;;;;;28.50;80.70;;;;;;5026436;28;20267;-62
2022/08/25 10:50:54;;;;;;;;;;;28.50;80.60;;;;;;5027149;28;19932;-62
2022/08/25 10:53:27;;;;;;;;;;;28.60;80.70;;;;;;5019511;28;19933;-61
2022/08/25 10:56:04;;;;;;;;;;;28.60;80.70;;;;;;5023658;28;19936;-63
2022/08/25 10:58:42;;;;;;;;;;;28.60;80.70;;;;;;5008709;28;19929;-62
2022/08/25 11:01:10;;;;;;;;;;;28.60;80.70;;;;;;5023031;28;19925;-61
2022/08/25 11:03:37;;;;;;;;;;;28.60;80.70;;;;;;5024866;28;19933;-60
2022/08/25 11:06:06;;;;;;;;;;;28.60;80.70;;;;;;5012407;28;20577;-61
2022/08/25 11:08:46;;;;;;;;;;;28.60;80.60;;;;;;5012798;28;19933;-63
2022/08/25 11:11:20;;;;;;;;;;;28.60;80.70;;;;;;5009783;28;19952;-60
2022/08/25 11:13:59;;;;;;;;;;;28.60;80.60;;;;;;5016214;28;19929;-61
2022/08/25 11:16:37;;;;;;;;;;;28.60;80.60;;;;;;4997593;28;19936;-60
2022/08/25 11:19:17;;;;;;;;;;;28.60;80.60;;;;;;5005064;28;20334;-57
2022/08/25 11:22:07;;;;;;;;;;;28.60;80.60;;;;;;5007528;28;19929;-61
2022/08/25 11:24:41;;;;;;;;;;;28.60;80.60;;;;;;5007428;28;19930;-60
2022/08/25 11:27:12;;;;;;;;;;;28.60;80.70;;;;;;5013426;28;20028;-62
2022/08/25 11:29:41;;;;;;;;;;;28.60;80.70;;;;;;5017270;28;19944;-57
2022/08/25 11:32:09;;;;;;;;;;;28.60;80.70;;;;;;5014522;28;19929;-60
2022/08/25 11:34:36;;;;;;;;;;;28.60;80.70;;;;;;5020653;28;19929;-60
2022/08/25 11:37:18;;;;;;;;;;;28.60;80.60;;;;;;5016131;28;20424;-62
2022/08/25 11:40:10;;;;;;;;;;;28.60;80.60;;;;;;5013455;28;19929;-62
2022/08/25 11:42:56;;;;;;;;;;;28.60;80.70;;;;;;4997689;28;19949;-60
2022/08/25 11:45:44;;;;;;;;;;;28.60;80.60;;;;;;5012103;28;19940;-59
2022/08/25 11:48:11;;;;;;;;;;;28.60;80.60;;;;;;5012696;28;20320;-61
2022/08/25 11:50:55;;;;;;;;;;;28.60;80.60;;;;;;5013053;28;20354;-61
2022/08/25 11:53:27;;;;;;;;;;;28.60;80.60;;;;;;5007131;28;20324;-63
2022/08/25 11:56:01;;;;;;;;;;;28.60;80.60;;;;;;5015516;28;19929;-57
2022/08/25 11:58:42;;;;;;;;;;;28.60;80.60;;;;;;5016897;28;19933;-61
2022/08/25 12:01:28;;;;;;;;;;;28.60;80.60;;;;;;5008005;28;19936;-60
2022/08/25 12:04:14;;;;;;;;;;;28.60;80.60;;;;;;5008545;28;19933;-57
2022/08/25 12:07:01;;;;;;;;;;;28.60;80.60;;;;;;5016608;28;19932;-60
2022/08/25 12:09:28;;;;;;;;;;;28.60;80.60;;;;;;5011651;28;19936;-62
2022/08/25 12:11:56;;;;;;;;;;;28.60;80.50;;;;;;5009715;28;19936;-62
2022/08/25 12:14:24;;;;;;;;;;;28.60;80.50;;;;;;5010628;28;19926;-63
2022/08/25 12:16:54;;;;;;;;;;;28.60;80.50;;;;;;5008225;28;19933;-61
2022/08/25 12:19:25;;;;;;;;;;;28.60;80.50;;;;;;5018569;28;19930;-61
2022/08/25 12:22:14;;;;;;;;;;;28.60;80.50;;;;;;5021579;28;19953;-64
2022/08/25 12:24:41;;;;;;;;;;;28.60;80.50;;;;;;5006382;28;20583;-63
2022/08/25 12:27:18;;;;;;;;;;;28.60;80.40;;;;;;5018489;28;19930;-61
2022/08/25 12:29:48;;;;;;;;;;;28.70;80.50;;;;;;5023764;28;19925;-61
2022/08/25 12:32:16;;;;;;;;;;;28.60;80.40;;;;;;5015072;28;20459;-62
2022/08/25 12:34:49;;;;;;;;;;;28.60;80.40;;;;;;5015800;28;19929;-62
2022/08/25 12:37:17;;;;;;;;;;;28.70;80.50;;;;;;5011460;28;19934;-62
2022/08/25 12:39:47;;;;;;;;;;;28.60;80.40;;;;;;5012070;28;19930;-62
2022/08/25 12:42:38;;;;;;;;;;;28.70;80.50;;;;;;5008613;28;19929;-64
2022/08/25 12:45:24;;;;;;;;;;;28.70;80.50;;;;;;5008858;28;20157;-60
2022/08/25 12:47:52;;;;;;;;;;;28.70;80.40;;;;;;5010181;28;21017;-62
2022/08/25 12:50:39;;;;;;;;;;;28.70;80.30;;;;;;4998988;28;19925;-59
2022/08/25 12:53:10;;;;;;;;;;;28.70;80.20;;;;;;4998258;28;20396;-62
2022/08/25 12:55:39;;;;;;;;;;;28.70;80.20;;;;;;5014885;28;19996;-60
2022/08/25 12:58:07;;;;;;;;;;;28.70;80.30;;;;;;5011590;28;19933;-61
2022/08/25 13:00:45;;;;;;;;;;;28.70;80.30;;;;;;5003466;28;19925;-62
2022/08/25 13:03:25;;;;;;;;;;;28.70;80.30;;;;;;5015957;28;19926;-60
2022/08/25 13:05:55;;;;;;;;;;;28.80;80.20;;;;;;5007570;28;19929;-60
2022/08/25 13:08:44;;;;;;;;;;;28.80;80.20;;;;;;5022575;28;19933;-61
2022/08/25 13:11:42;;;;;;;;;;;28.80;80.10;;;;;;5012175;28;20309;-62
2022/08/25 13:14:33;;;;;;;;;;;28.80;80.10;;;;;;5006937;28;19937;-59
2022/08/25 13:17:04;;;;;;;;;;;28.80;80.20;;;;;;5004964;28;19925;-58
2022/08/25 13:19:32;;;;;;;;;;;28.80;80.10;;;;;;5013345;28;19929;-58
2022/08/25 13:22:16;;;;;;;;;;;28.80;80.00;;;;;;5014899;28;19929;-60
2022/08/25 13:24:45;;;;;;;;;;;28.80;80.00;;;;;;5011643;28;19936;-60
2022/08/25 13:27:22;;;;;;;;;;;28.80;80.10;;;;;;5013155;28;19929;-62
2022/08/25 13:29:52;;;;;;;;;;;28.80;80.10;;;;;;5015294;28;19925;-58
2022/08/25 13:32:30;;;;;;;;;;;28.80;80.10;;;;;;5006893;28;19933;-62
2022/08/25 13:35:27;;;;;;;;;;;28.80;80.20;;;;;;5017746;28;20415;-61
2022/08/25 13:38:12;;;;;;;;;;;28.80;80.10;;;;;;5009976;28;20362;-61
2022/08/25 13:40:39;;;;;;;;;;;28.90;80.20;;;;;;5006038;28;19925;-62
2022/08/25 13:43:11;;;;;;;;;;;28.90;80.00;;;;;;5015555;28;19926;-60
2022/08/25 13:45:42;;;;;;;;;;;29.00;80.00;;;;;;5020480;28;20404;-63
2022/08/25 13:48:11;;;;;;;;;;;29.00;79.90;;;;;;5017909;28;19925;-63
2022/08/25 13:51:05;;;;;;;;;;;29.00;79.90;;;;;;5018408;28;19925;-62
2022/08/25 13:53:34;;;;;;;;;;;29.00;79.90;;;;;;5004394;28;19960;-62
2022/08/25 13:56:02;;;;;;;;;;;29.00;79.90;;;;;;5016781;28;19936;-62
2022/08/25 13:58:35;;;;;;;;;;;29.00;80.00;;;;;;5012846;28;19936;-61
2022/08/25 14:01:15;;;;;;;;;;;29.00;79.90;;;;;;5007450;28;19936;-63
2022/08/25 14:04:23;;;;;;;;;;;29.10;79.80;;;;;;5013290;28;19936;-63
2022/08/25 14:07:05;;;;;;;;;;;29.10;79.80;;;;;;5003864;28;19949;-61
2022/08/25 14:09:57;;;;;;;;;;;29.10;79.80;;;;;;5011844;28;19948;-62
2022/08/25 14:12:30;;;;;;;;;;;29.20;79.70;;;;;;5012791;28;19925;-63
2022/08/25 14:15:00;;;;;;;;;;;29.30;79.60;;;;;;5019765;28;19938;-62
2022/08/25 14:17:27;;;;;;;;;;;29.30;79.50;;;;;;5008255;28;19929;-60
2022/08/25 14:20:17;;;;;;;;;;;29.40;79.40;;;;;;5013413;28;19930;-61
2022/08/25 14:22:44;;;;;;;;;;;29.40;79.30;;;;;;5006746;28;19929;-60
2022/08/25 14:25:12;;;;;;;;;;;29.40;79.30;;;;;;5005416;28;19926;-62
2022/08/25 14:27:43;;;;;;;;;;;29.50;79.20;;;;;;5004714;28;20306;-60
2022/08/25 14:30:33;;;;;;;;;;;29.60;79.10;;;;;;5016093;28;19925;-62
2022/08/25 14:33:02;;;;;;;;;;;29.60;79.00;;;;;;5013355;28;20414;-61
2022/08/25 14:35:29;;;;;;;;;;;29.60;78.90;;;;;;5008013;28;19929;-61
2022/08/25 14:37:57;;;;;;;;;;;29.70;78.90;;;;;;5011129;28;19929;-63
2022/08/25 14:40:24;;;;;;;;;;;29.80;78.80;;;;;;5002734;28;19933;-63
2022/08/25 14:42:58;;;;;;;;;;;29.90;78.80;;;;;;5015844;28;19925;-62
2022/08/25 14:45:29;;;;;;;;;;;29.90;78.60;;;;;;5020509;28;19933;-62
2022/08/25 14:48:01;;;;;;;;;;;30.00;78.50;;;;;;5016157;28;20063;-63
2022/08/25 14:50:29;;;;;;;;;;;30.00;78.40;;;;;;5011514;28;19948;-62